createdAt,value
2023-03-19T00:00:32.381Z,11.60
2023-03-19T00:03:00.669Z,22.50
2023-03-19T00:05:28.899Z,28.90
2023-03-19T00:07:56.886Z,16.30
2023-03-19T00:10:27.071Z,13.20
2023-03-19T00:12:55.088Z,3.90
2023-03-19T00:15:23.047Z,1.00
2023-03-19T00:17:51.606Z,1.00
2023-03-19T00:20:20.426Z,1.00
2023-03-19T00:22:48.475Z,1.00
2023-03-19T00:25:16.547Z,1.00
2023-03-19T00:27:46.371Z,1.00
2023-03-19T00:30:15.013Z,1.00
2023-03-19T00:32:43.133Z,1.00
2023-03-19T00:35:11.865Z,1.00
2023-03-19T00:37:40.112Z,1.00
2023-03-19T00:40:10.277Z,1.00
2023-03-19T00:42:38.294Z,1.00
2023-03-19T00:45:09.122Z,1.00
2023-03-19T00:47:37.161Z,1.00
2023-03-19T00:50:06.472Z,1.00
2023-03-19T00:52:34.463Z,1.00
2023-03-19T00:55:02.505Z,1.00
2023-03-19T00:57:30.523Z,1.00
2023-03-19T00:59:58.508Z,1.00
2023-03-19T01:02:28.109Z,1.00
2023-03-19T01:04:56.159Z,1.00
2023-03-19T01:07:24.165Z,1.00
2023-03-19T01:09:52.133Z,1.00
2023-03-19T01:12:20.425Z,1.00
2023-03-19T01:14:48.543Z,1.00
2023-03-19T01:17:16.600Z,1.00
2023-03-19T01:19:46.022Z,1.00
2023-03-19T01:22:16.207Z,1.00
2023-03-19T01:24:44.270Z,1.00
2023-03-19T01:27:12.590Z,1.00
2023-03-19T01:29:40.781Z,1.00
2023-03-19T01:32:08.894Z,1.00
2023-03-19T01:34:37.127Z,1.00
2023-03-19T01:37:06.555Z,1.00
2023-03-19T01:39:34.739Z,1.00
2023-03-19T01:42:03.785Z,1.00
2023-03-19T01:44:34.049Z,1.00
2023-03-19T01:47:05.809Z,1.00
2023-03-19T01:49:34.171Z,1.00
2023-03-19T01:52:06.074Z,1.00
2023-03-19T01:54:36.583Z,1.00
2023-03-19T01:57:08.457Z,1.00
2023-03-19T01:59:40.568Z,1.00
2023-03-19T02:02:14.419Z,1.00
2023-03-19T02:04:46.063Z,1.00
2023-03-19T02:07:15.760Z,1.00
2023-03-19T02:09:45.386Z,1.00
2023-03-19T02:12:14.084Z,1.00
2023-03-19T02:14:42.145Z,1.00
2023-03-19T02:17:10.332Z,1.00
2023-03-19T02:19:47.121Z,1.00
2023-03-19T02:22:17.713Z,1.00
2023-03-19T02:24:53.914Z,1.00
2023-03-19T02:27:23.760Z,1.00
2023-03-19T02:29:52.055Z,1.00
2023-03-19T02:32:20.142Z,1.00
2023-03-19T02:34:49.161Z,1.00
2023-03-19T02:37:20.689Z,1.00
2023-03-19T02:39:55.779Z,1.00
2023-03-19T02:42:27.189Z,1.00
2023-03-19T02:44:55.213Z,1.00
2023-03-19T02:47:23.576Z,1.00
2023-03-19T02:49:51.685Z,1.00
2023-03-19T02:52:19.963Z,1.00
2023-03-19T02:54:48.492Z,1.00
2023-03-19T02:57:16.526Z,1.00
2023-03-19T02:59:46.358Z,1.00
2023-03-19T03:02:15.285Z,1.00
2023-03-19T03:04:43.397Z,1.00
2023-03-19T03:07:11.624Z,1.00
2023-03-19T03:09:39.676Z,1.00
2023-03-19T03:12:08.388Z,1.00
2023-03-19T03:14:36.533Z,1.00
2023-03-19T03:17:06.049Z,1.00
2023-03-19T03:19:34.196Z,1.00
2023-03-19T03:22:02.234Z,1.00
2023-03-19T03:24:30.300Z,1.00
2023-03-19T03:26:58.273Z,1.00
2023-03-19T03:29:26.417Z,1.00
2023-03-19T03:31:54.465Z,1.00
2023-03-19T03:34:23.796Z,1.00
2023-03-19T03:36:52.122Z,1.00
2023-03-19T03:39:20.164Z,1.00
2023-03-19T03:41:48.106Z,1.00
2023-03-19T03:44:16.365Z,1.00
2023-03-19T03:46:44.773Z,1.00
2023-03-19T03:49:13.268Z,1.00
2023-03-19T03:51:42.625Z,1.00
2023-03-19T03:54:10.613Z,1.00
2023-03-19T03:56:38.597Z,1.00
2023-03-19T03:59:07.466Z,1.00
2023-03-19T04:01:35.532Z,1.00
2023-03-19T04:04:03.756Z,1.00
2023-03-19T04:06:31.904Z,1.00
2023-03-19T04:09:02.391Z,1.00
2023-03-19T04:11:30.648Z,1.00
2023-03-19T04:13:58.740Z,1.00
2023-03-19T04:16:28.710Z,1.00
2023-03-19T04:18:56.789Z,1.00
2023-03-19T04:21:24.801Z,1.00
2023-03-19T04:23:52.764Z,1.00
2023-03-19T04:26:22.193Z,1.00
2023-03-19T04:28:50.192Z,1.00
2023-03-19T04:31:18.242Z,1.00
2023-03-19T04:33:46.656Z,1.00
2023-03-19T04:36:14.726Z,1.00
2023-03-19T04:38:42.720Z,1.00
2023-03-19T04:41:10.920Z,1.00
2023-03-19T04:43:40.304Z,1.00
2023-03-19T04:46:08.525Z,1.00
2023-03-19T04:48:39.438Z,1.00
2023-03-19T04:51:09.271Z,1.00
2023-03-19T04:53:37.807Z,1.00
2023-03-19T04:56:06.989Z,1.00
2023-03-19T04:58:35.051Z,1.00
2023-03-19T05:01:04.592Z,1.00
2023-03-19T05:03:32.623Z,1.00
2023-03-19T05:06:00.697Z,1.00
2023-03-19T05:08:28.950Z,1.00
2023-03-19T05:10:57.168Z,1.00
2023-03-19T05:13:25.125Z,1.00
2023-03-19T05:15:55.092Z,1.00
2023-03-19T05:18:24.611Z,1.00
2023-03-19T05:20:53.398Z,1.00
2023-03-19T05:23:21.568Z,1.00
2023-03-19T05:25:49.698Z,1.00
2023-03-19T05:28:18.182Z,1.00
2023-03-19T05:30:46.689Z,1.00
2023-03-19T05:33:14.876Z,1.00
2023-03-19T05:35:44.670Z,1.00
2023-03-19T05:38:13.139Z,1.00
2023-03-19T05:40:42.021Z,1.00
2023-03-19T05:43:10.523Z,1.00
2023-03-19T05:45:39.161Z,1.00
2023-03-19T05:48:09.076Z,1.00
2023-03-19T05:50:37.180Z,1.00
2023-03-19T05:53:06.674Z,1.00
2023-03-19T05:55:34.702Z,1.00
2023-03-19T05:58:02.752Z,1.00
2023-03-19T06:00:30.919Z,1.00
2023-03-19T06:02:59.000Z,1.00
2023-03-19T06:05:27.131Z,1.00
2023-03-19T06:07:55.448Z,1.00
2023-03-19T06:10:24.831Z,1.00
2023-03-19T06:12:52.914Z,1.00
2023-03-19T06:15:21.151Z,1.00
2023-03-19T06:17:49.344Z,1.00
2023-03-19T06:20:17.789Z,1.00
2023-03-19T06:22:46.060Z,1.00
2023-03-19T06:25:14.133Z,1.00
2023-03-19T06:27:43.718Z,1.00
2023-03-19T06:30:13.145Z,1.00
2023-03-19T06:32:41.810Z,1.00
2023-03-19T06:35:10.919Z,1.00
2023-03-19T06:37:38.977Z,1.00
2023-03-19T06:40:08.001Z,1.00
2023-03-19T06:42:36.528Z,1.00
2023-03-19T06:45:07.633Z,1.00
2023-03-19T06:47:35.729Z,1.00
2023-03-19T06:50:04.521Z,1.00
2023-03-19T06:52:32.627Z,1.00
2023-03-19T06:55:00.743Z,3.00
2023-03-19T06:57:28.931Z,3.20
2023-03-19T06:59:57.034Z,15.00
2023-03-19T07:02:26.749Z,17.70
2023-03-19T07:04:54.846Z,15.00
2023-03-19T07:07:22.935Z,24.70
2023-03-19T07:09:51.346Z,22.30
2023-03-19T07:12:19.368Z,56.20
2023-03-19T07:14:47.404Z,52.60
2023-03-19T07:17:15.779Z,45.90
2023-03-19T07:19:45.477Z,49.30
2023-03-19T07:22:13.518Z,52.80
2023-03-19T07:24:41.571Z,36.80
2023-03-19T07:27:10.109Z,53.20
2023-03-19T07:29:38.234Z,58.10
2023-03-19T07:32:06.972Z,47.30
2023-03-19T07:34:35.652Z,57.30
2023-03-19T07:37:05.165Z,51.30
2023-03-19T07:39:33.393Z,58.70
2023-03-19T07:42:01.458Z,58.20
2023-03-19T07:44:29.416Z,72.20
2023-03-19T07:46:57.442Z,70.60
2023-03-19T07:49:25.802Z,67.80
2023-03-19T07:51:53.881Z,67.10
2023-03-19T07:54:23.679Z,47.70
2023-03-19T07:56:51.740Z,59.90
2023-03-19T07:59:19.867Z,39.20
2023-03-19T08:01:47.910Z,38.70
2023-03-19T08:04:16.664Z,58.80
2023-03-19T08:06:44.772Z,56.00
2023-03-19T08:09:13.316Z,60.30
2023-03-19T08:11:42.695Z,44.10
2023-03-19T08:14:10.899Z,59.30
2023-03-19T08:16:39.254Z,98.00
2023-03-19T08:19:07.254Z,93.90
2023-03-19T08:21:35.241Z,99.90
2023-03-19T08:24:05.004Z,99.90
2023-03-19T08:26:33.448Z,99.90
2023-03-19T08:29:04.102Z,99.20
2023-03-19T08:31:32.504Z,99.50
2023-03-19T08:34:03.143Z,99.90
2023-03-19T08:36:31.257Z,99.90
2023-03-19T08:38:59.630Z,84.50
2023-03-19T08:41:27.648Z,84.00
2023-03-19T08:43:55.680Z,80.00
2023-03-19T08:46:25.501Z,16.90
2023-03-19T08:48:53.553Z,28.40
2023-03-19T08:51:21.592Z,1.00
2023-03-19T08:53:49.585Z,1.00
2023-03-19T08:56:17.551Z,1.00
2023-03-19T08:58:45.563Z,1.00
2023-03-19T09:01:14.708Z,1.00
2023-03-19T09:03:45.333Z,1.00
2023-03-19T09:06:15.535Z,1.00
2023-03-19T09:08:44.240Z,1.00
2023-03-19T09:11:14.368Z,1.00
2023-03-19T09:13:42.463Z,1.00
2023-03-19T09:16:11.029Z,1.00
2023-03-19T09:18:39.104Z,1.00
2023-03-19T09:21:08.641Z,1.00
2023-03-19T09:23:36.759Z,1.00
2023-03-19T09:26:05.049Z,1.00
2023-03-19T09:28:33.196Z,1.00
2023-03-19T09:31:06.947Z,1.00
2023-03-19T09:33:35.333Z,1.00
2023-03-19T09:36:03.622Z,1.00
2023-03-19T09:38:33.598Z,1.00
2023-03-19T09:41:11.316Z,1.00
2023-03-19T09:44:02.203Z,1.00
2023-03-19T09:46:43.243Z,1.00
2023-03-19T09:49:18.001Z,1.00
2023-03-19T09:51:49.630Z,99.90
2023-03-19T09:54:28.859Z,99.90
2023-03-19T09:56:57.356Z,99.90
2023-03-19T09:59:28.288Z,99.90
2023-03-19T10:02:06.486Z,99.90
2023-03-19T10:04:43.180Z,99.90
2023-03-19T10:07:24.034Z,1.00
2023-03-19T10:10:16.229Z,1.00
2023-03-19T10:12:58.131Z,99.90
2023-03-19T10:15:30.479Z,99.90
2023-03-19T10:18:01.522Z,99.90
2023-03-19T10:20:44.543Z,99.90
2023-03-19T10:23:36.613Z,99.90
2023-03-19T10:26:10.544Z,99.90
2023-03-19T10:28:39.991Z,99.90
2023-03-19T10:31:29.494Z,99.90
2023-03-19T10:34:13.273Z,99.90
2023-03-19T10:36:41.636Z,99.90
2023-03-19T10:39:09.905Z,99.90
2023-03-19T10:41:51.323Z,99.90
2023-03-19T10:44:30.698Z,99.90
2023-03-19T10:47:00.268Z,99.90
2023-03-19T10:49:28.388Z,99.90
2023-03-19T10:51:59.507Z,99.90
2023-03-19T10:54:31.479Z,99.90
2023-03-19T10:57:02.252Z,99.90
2023-03-19T10:59:37.436Z,99.90
2023-03-19T11:02:18.278Z,99.90
2023-03-19T11:04:46.787Z,99.90
2023-03-19T11:07:19.281Z,99.90
2023-03-19T11:09:49.449Z,99.90
2023-03-19T11:12:23.086Z,99.90
2023-03-19T11:14:53.636Z,99.90
2023-03-19T11:17:24.588Z,99.90
2023-03-19T11:19:55.103Z,99.90
2023-03-19T11:22:25.564Z,99.90
2023-03-19T11:24:55.772Z,99.90
2023-03-19T11:27:34.787Z,99.90
2023-03-19T11:30:03.977Z,99.90
2023-03-19T11:32:57.832Z,99.90
2023-03-19T11:35:29.591Z,99.90
2023-03-19T11:38:00.686Z,99.90
2023-03-19T11:40:37.458Z,99.90
2023-03-19T11:43:29.365Z,99.90
2023-03-19T11:46:06.491Z,99.90
2023-03-19T11:48:57.530Z,99.90
2023-03-19T11:51:31.989Z,99.90
2023-03-19T11:54:07.757Z,99.90
2023-03-19T11:56:44.062Z,86.20
2023-03-19T11:59:36.842Z,19.90
2023-03-19T12:02:34.992Z,41.80
2023-03-19T12:05:22.246Z,99.90
2023-03-19T12:08:05.744Z,92.90
2023-03-19T12:10:44.120Z,53.10
2023-03-19T12:13:25.027Z,53.10
2023-03-19T12:16:01.751Z,44.50
2023-03-19T12:18:48.420Z,1.00
2023-03-19T12:21:24.353Z,1.00
2023-03-19T12:24:04.003Z,1.00
2023-03-19T12:26:42.762Z,4.00
2023-03-19T12:29:22.225Z,1.00
2023-03-19T12:32:17.977Z,1.00
2023-03-19T12:34:51.106Z,1.00
2023-03-19T12:37:25.191Z,1.00
2023-03-19T12:40:04.738Z,1.00
2023-03-19T12:42:38.785Z,1.00
2023-03-19T12:45:20.972Z,1.00
2023-03-19T12:47:52.464Z,1.00
2023-03-19T12:50:21.567Z,1.00
2023-03-19T12:52:52.843Z,1.00
2023-03-19T12:55:24.027Z,1.00
2023-03-19T12:57:55.793Z,1.00
2023-03-19T13:00:29.668Z,1.00
2023-03-19T13:03:07.530Z,1.00
2023-03-19T13:05:41.718Z,1.00
2023-03-19T13:08:17.902Z,1.00
2023-03-19T13:10:46.141Z,1.00
2023-03-19T13:13:29.782Z,1.00
2023-03-19T13:16:02.747Z,1.00
2023-03-19T13:18:40.437Z,1.00
2023-03-19T13:21:21.579Z,1.00
2023-03-19T13:23:53.308Z,1.00
2023-03-19T13:26:21.473Z,1.00
2023-03-19T13:29:01.581Z,1.00
2023-03-19T13:31:34.941Z,1.00
2023-03-19T13:34:07.680Z,1.00
2023-03-19T13:36:39.445Z,1.00
2023-03-19T13:39:15.755Z,1.00
2023-03-19T13:41:53.577Z,1.00
2023-03-19T13:44:36.996Z,1.00
2023-03-19T13:47:38.479Z,1.00
2023-03-19T13:50:31.660Z,1.00
2023-03-19T13:53:24.480Z,1.00
2023-03-19T13:55:55.944Z,1.00
2023-03-19T13:58:44.395Z,1.00
2023-03-19T14:01:33.784Z,1.00
2023-03-19T14:04:03.299Z,1.00
2023-03-19T14:06:37.225Z,1.00
2023-03-19T14:09:06.938Z,1.00
2023-03-19T14:11:37.787Z,1.00
2023-03-19T14:14:08.571Z,1.00
2023-03-19T14:16:39.402Z,1.00
2023-03-19T14:19:13.697Z,1.00
2023-03-19T14:21:47.436Z,1.00
2023-03-19T14:27:22.566Z,1.00
2023-03-19T14:29:50.901Z,1.00
2023-03-19T14:32:22.372Z,1.00
2023-03-19T14:34:51.559Z,1.00
2023-03-19T14:37:25.118Z,1.00
2023-03-19T14:40:00.484Z,1.00
2023-03-19T14:42:33.499Z,1.00
2023-03-19T14:45:36.157Z,1.00
2023-03-19T14:48:27.013Z,1.00
2023-03-19T14:51:27.116Z,1.00
2023-03-19T14:53:59.766Z,1.00
2023-03-19T14:56:32.224Z,1.00
2023-03-19T14:59:03.840Z,1.00
2023-03-19T15:01:34.188Z,1.00
2023-03-19T15:04:04.269Z,1.00
2023-03-19T15:06:36.161Z,1.00
2023-03-19T15:09:08.193Z,1.00
2023-03-19T15:11:55.851Z,1.00
2023-03-19T15:14:45.428Z,1.00
2023-03-19T15:17:22.363Z,1.00
2023-03-19T15:19:51.226Z,1.00
2023-03-19T15:22:22.083Z,1.00
2023-03-19T15:24:51.790Z,1.00
2023-03-19T15:27:22.089Z,1.00
2023-03-19T15:29:51.758Z,1.00
2023-03-19T15:32:50.902Z,1.00
2023-03-19T15:35:24.359Z,1.00
2023-03-19T15:37:55.912Z,1.00
2023-03-19T15:40:30.215Z,1.00
2023-03-19T15:43:01.423Z,1.00
2023-03-19T15:45:31.375Z,1.00
2023-03-19T15:48:04.738Z,1.00
2023-03-19T15:50:36.944Z,1.00
2023-03-19T15:53:07.579Z,1.00
2023-03-19T15:55:38.157Z,1.00
2023-03-19T15:58:09.756Z,1.00
2023-03-19T16:00:41.119Z,1.00
2023-03-19T16:03:17.360Z,1.00
2023-03-19T16:05:45.887Z,1.00
2023-03-19T16:08:20.977Z,1.00
2023-03-19T16:10:50.678Z,1.00
2023-03-19T16:13:31.775Z,1.00
2023-03-19T16:16:06.669Z,1.00
2023-03-19T16:18:45.626Z,1.00
2023-03-19T16:21:17.634Z,1.00
2023-03-19T16:23:50.970Z,1.00
2023-03-19T16:26:24.673Z,1.00
2023-03-19T16:29:00.152Z,1.00
2023-03-19T16:31:32.040Z,1.00
2023-03-19T16:34:00.638Z,1.00
2023-03-19T16:36:33.727Z,1.00
2023-03-19T16:39:24.432Z,1.00
2023-03-19T16:42:17.479Z,1.00
2023-03-19T16:44:48.354Z,1.00
2023-03-19T16:47:17.073Z,1.00
2023-03-19T16:49:46.963Z,1.00
2023-03-19T16:52:17.894Z,1.00
2023-03-19T16:54:46.461Z,1.00
2023-03-19T16:57:18.202Z,1.00
2023-03-19T16:59:47.624Z,1.00
2023-03-19T17:02:17.519Z,1.00
2023-03-19T17:04:46.287Z,1.00
2023-03-19T17:07:14.649Z,1.00
2023-03-19T17:09:42.885Z,2.70
2023-03-19T17:12:17.775Z,25.60
2023-03-19T17:14:46.091Z,60.90
2023-03-19T17:17:19.593Z,33.50
2023-03-19T17:19:48.048Z,58.00
2023-03-19T17:22:16.235Z,31.30
2023-03-19T17:24:44.565Z,11.70
2023-03-19T17:27:12.785Z,1.00
2023-03-19T17:29:42.121Z,9.40
2023-03-19T17:32:18.724Z,20.50
2023-03-19T17:34:47.261Z,64.90
2023-03-19T17:37:15.764Z,99.90
2023-03-19T17:39:45.781Z,99.90
2023-03-19T17:42:19.313Z,99.90
2023-03-19T17:44:48.706Z,99.90
2023-03-19T17:47:18.446Z,99.90
2023-03-19T17:49:47.305Z,96.90
2023-03-19T17:52:16.810Z,96.20
2023-03-19T17:54:44.929Z,90.70
2023-03-19T17:57:15.496Z,44.90
2023-03-19T17:59:43.900Z,19.50
2023-03-19T18:02:25.588Z,16.10
2023-03-19T18:04:53.652Z,35.20
2023-03-19T18:07:21.710Z,94.80
2023-03-19T18:09:49.806Z,99.90
2023-03-19T18:12:20.389Z,99.90
2023-03-19T18:14:48.399Z,99.90
2023-03-19T18:17:18.920Z,99.90
2023-03-19T18:19:50.777Z,99.90
2023-03-19T18:22:20.237Z,99.90
2023-03-19T18:24:48.232Z,99.90
2023-03-19T18:27:16.297Z,99.90
2023-03-19T18:29:44.323Z,99.90
2023-03-19T18:32:16.076Z,99.90
2023-03-19T18:34:45.529Z,99.90
2023-03-19T18:37:18.020Z,99.90
2023-03-19T18:39:46.276Z,99.90
2023-03-19T18:42:15.259Z,99.90
2023-03-19T18:44:43.535Z,99.90
2023-03-19T18:47:15.388Z,99.90
2023-03-19T18:49:45.952Z,99.90
2023-03-19T18:52:19.318Z,99.90
2023-03-19T18:54:47.939Z,99.90
2023-03-19T18:57:16.776Z,99.90
2023-03-19T18:59:44.899Z,99.90
2023-03-19T19:02:26.833Z,99.90
2023-03-19T19:04:56.221Z,99.90
2023-03-19T19:07:24.251Z,99.90
2023-03-19T19:09:52.244Z,99.90
2023-03-19T19:12:20.569Z,99.90
2023-03-19T19:14:48.650Z,99.90
2023-03-19T19:17:18.418Z,99.90
2023-03-19T19:19:46.614Z,99.90
2023-03-19T19:22:17.777Z,99.90
2023-03-19T19:24:46.131Z,99.90
2023-03-19T19:27:19.231Z,90.90
2023-03-19T19:29:47.910Z,75.10
2023-03-19T19:32:20.724Z,61.90
2023-03-19T19:34:48.729Z,40.70
2023-03-19T19:37:19.391Z,34.70
2023-03-19T19:39:47.340Z,38.10
2023-03-19T19:42:16.855Z,64.10
2023-03-19T19:44:49.738Z,91.70
2023-03-19T19:47:18.567Z,99.90
2023-03-19T19:49:46.608Z,99.90
2023-03-19T19:52:17.133Z,93.80
2023-03-19T19:54:46.766Z,84.90
2023-03-19T19:57:22.778Z,57.40
2023-03-19T19:59:52.022Z,47.20
2023-03-19T20:02:21.639Z,34.70
2023-03-19T20:04:50.225Z,39.10
2023-03-19T20:07:18.328Z,61.20
2023-03-19T20:09:47.995Z,92.10
2023-03-19T20:12:20.561Z,88.20
2023-03-19T20:14:49.108Z,99.90
2023-03-19T20:17:18.002Z,99.90
2023-03-19T20:19:46.447Z,99.90
2023-03-19T20:22:14.474Z,99.90
2023-03-19T20:24:42.752Z,99.90
2023-03-19T20:27:19.374Z,99.40
2023-03-19T20:29:47.419Z,79.70
2023-03-19T20:32:27.990Z,70.20
2023-03-19T20:34:56.030Z,53.50
2023-03-19T20:37:24.023Z,26.80
2023-03-19T20:39:52.024Z,65.50
2023-03-19T20:42:21.537Z,99.90
2023-03-19T20:44:50.513Z,99.90
2023-03-19T20:47:20.558Z,99.90
2023-03-19T20:49:48.994Z,99.90
2023-03-19T20:52:17.168Z,99.90
2023-03-19T20:54:45.710Z,99.90
2023-03-19T20:57:15.533Z,99.90
2023-03-19T20:59:46.899Z,99.90
2023-03-19T21:02:17.094Z,99.90
2023-03-19T21:04:45.630Z,99.90
2023-03-19T21:07:28.613Z,99.90
2023-03-19T21:09:57.070Z,99.90
2023-03-19T21:12:29.327Z,99.90
2023-03-19T21:14:59.423Z,99.90
2023-03-19T21:17:28.797Z,99.90
2023-03-19T21:19:57.342Z,99.90
2023-03-19T21:22:29.413Z,99.90
2023-03-19T21:25:03.280Z,99.90
2023-03-19T21:27:33.091Z,99.90
2023-03-19T21:30:02.757Z,99.90
2023-03-19T21:32:31.710Z,99.90
2023-03-19T21:35:00.046Z,99.90
2023-03-19T21:37:28.213Z,99.90
2023-03-19T21:39:56.391Z,99.90
2023-03-19T21:42:24.885Z,99.90
2023-03-19T21:45:00.697Z,99.90
2023-03-19T21:47:30.044Z,99.90
2023-03-19T21:50:00.492Z,99.90
2023-03-19T21:52:57.580Z,99.90
2023-03-19T21:55:27.840Z,99.90
2023-03-19T21:57:58.711Z,99.90
2023-03-19T22:00:27.260Z,99.90
2023-03-19T22:02:58.010Z,99.90
2023-03-19T22:05:27.373Z,44.60
2023-03-19T22:07:56.153Z,19.90
2023-03-19T22:10:28.149Z,1.00
2023-03-19T22:12:56.280Z,1.00
2023-03-19T22:15:30.753Z,7.00
2023-03-19T22:18:00.274Z,8.30
2023-03-19T22:20:28.604Z,13.20
2023-03-19T22:22:57.578Z,1.00
2023-03-19T22:25:33.016Z,1.00
2023-03-19T22:28:01.252Z,1.00
2023-03-19T22:30:35.644Z,1.00
2023-03-19T22:33:13.508Z,18.60
2023-03-19T22:35:42.010Z,36.60
2023-03-19T22:38:10.089Z,31.20
2023-03-19T22:40:39.300Z,37.80
2023-03-19T22:43:18.362Z,28.30
2023-03-19T22:45:46.532Z,42.40
2023-03-19T22:48:18.100Z,6.50
2023-03-19T22:50:46.125Z,1.00
2023-03-19T22:53:22.161Z,1.00
2023-03-19T22:55:50.539Z,1.00
2023-03-19T22:58:18.762Z,1.00
2023-03-19T23:00:47.435Z,1.00
2023-03-19T23:03:21.388Z,1.00
2023-03-19T23:05:52.510Z,1.00
2023-03-19T23:08:20.658Z,1.00
2023-03-19T23:10:48.918Z,1.00
2023-03-19T23:13:16.955Z,1.00
2023-03-19T23:15:45.535Z,1.00
2023-03-19T23:18:20.220Z,1.00
2023-03-19T23:20:48.397Z,1.00
2023-03-19T23:23:18.074Z,1.00
2023-03-19T23:25:47.504Z,1.00
2023-03-19T23:28:20.462Z,1.00
2023-03-19T23:30:50.342Z,1.00
2023-03-19T23:33:21.297Z,1.00
2023-03-19T23:35:49.574Z,1.00
2023-03-19T23:38:18.384Z,1.00
2023-03-19T23:40:46.904Z,1.00
2023-03-19T23:43:19.824Z,1.00
2023-03-19T23:45:50.022Z,1.00
2023-03-19T23:48:21.880Z,1.00
2023-03-19T23:50:49.923Z,1.00
2023-03-19T23:53:20.363Z,1.00
2023-03-19T23:55:50.894Z,1.00
2023-03-19T23:58:19.931Z,1.00
